sensor_id;sensor_type;location;lat;lon;timestamp;pressure;altitude;pressure_sealevel;temperature;humidity
25722;BME280;13578;53.450;15.496;2023-07-13T00:01:54;99401.97;;;16.26;100.00
25722;BME280;13578;53.450;15.496;2023-07-13T00:04:55;99406.84;;;16.24;100.00
25722;BME280;13578;53.450;15.496;2023-07-13T00:07:56;99396.44;;;16.26;100.00
25722;BME280;13578;53.450;15.496;2023-07-13T00:10:56;99395.75;;;16.24;100.00
25722;BME280;13578;53.450;15.496;2023-07-13T00:13:57;99392.50;;;16.20;100.00
25722;BME280;13578;53.450;15.496;2023-07-13T00:16:57;99396.50;;;16.18;100.00
25722;BME280;13578;53.450;15.496;2023-07-13T00:20:00;99385.69;;;16.08;100.00
25722;BME280;13578;53.450;15.496;2023-07-13T00:23:01;99395.72;;;16.09;100.00
25722;BME280;13578;53.450;15.496;2023-07-13T00:26:03;99394.47;;;16.12;100.00
25722;BME280;13578;53.450;15.496;2023-07-13T00:29:04;99398.69;;;16.08;100.00
25722;BME280;13578;53.450;15.496;2023-07-13T00:32:08;99411.63;;;16.07;100.00
25722;BME280;13578;53.450;15.496;2023-07-13T00:35:10;99405.78;;;16.02;100.00
25722;BME280;13578;53.450;15.496;2023-07-13T00:38:10;99408.38;;;16.03;100.00
25722;BME280;13578;53.450;15.496;2023-07-13T00:41:11;99397.69;;;16.00;100.00
25722;BME280;13578;53.450;15.496;2023-07-13T00:44:20;99407.19;;;15.98;100.00
25722;BME280;13578;53.450;15.496;2023-07-13T00:47:23;99405.00;;;15.93;100.00
25722;BME280;13578;53.450;15.496;2023-07-13T00:50:24;99419.69;;;15.94;100.00
25722;BME280;13578;53.450;15.496;2023-07-13T00:53:26;99416.63;;;15.80;100.00
25722;BME280;13578;53.450;15.496;2023-07-13T00:56:28;99416.13;;;15.77;100.00
25722;BME280;13578;53.450;15.496;2023-07-13T00:59:29;99423.38;;;15.86;100.00
25722;BME280;13578;53.450;15.496;2023-07-13T01:02:31;99416.97;;;15.85;100.00
25722;BME280;13578;53.450;15.496;2023-07-13T01:05:33;99416.44;;;15.82;100.00
25722;BME280;13578;53.450;15.496;2023-07-13T01:08:34;99396.38;;;15.80;100.00
25722;BME280;13578;53.450;15.496;2023-07-13T01:11:35;99372.53;;;15.79;100.00
25722;BME280;13578;53.450;15.496;2023-07-13T01:14:35;99373.94;;;15.83;100.00
25722;BME280;13578;53.450;15.496;2023-07-13T01:17:36;99372.16;;;15.82;100.00
25722;BME280;13578;53.450;15.496;2023-07-13T01:20:37;99363.56;;;15.77;100.00
25722;BME280;13578;53.450;15.496;2023-07-13T01:23:38;99358.78;;;15.70;100.00
25722;BME280;13578;53.450;15.496;2023-07-13T01:26:39;99359.63;;;15.71;100.00
25722;BME280;13578;53.450;15.496;2023-07-13T01:29:41;99374.38;;;15.63;100.00
25722;BME280;13578;53.450;15.496;2023-07-13T01:32:42;99379.91;;;15.63;100.00
25722;BME280;13578;53.450;15.496;2023-07-13T01:35:44;99392.00;;;15.62;100.00
25722;BME280;13578;53.450;15.496;2023-07-13T01:38:45;99391.31;;;15.60;100.00
25722;BME280;13578;53.450;15.496;2023-07-13T01:41:46;99391.31;;;15.60;100.00
25722;BME280;13578;53.450;15.496;2023-07-13T01:44:46;99398.19;;;15.64;100.00
25722;BME280;13578;53.450;15.496;2023-07-13T01:47:47;99391.31;;;15.60;100.00
25722;BME280;13578;53.450;15.496;2023-07-13T01:50:48;99385.63;;;15.53;100.00
25722;BME280;13578;53.450;15.496;2023-07-13T01:53:49;99385.47;;;15.55;100.00
25722;BME280;13578;53.450;15.496;2023-07-13T01:56:50;99392.03;;;15.54;100.00
25722;BME280;13578;53.450;15.496;2023-07-13T01:59:51;99398.69;;;15.68;100.00
25722;BME280;13578;53.450;15.496;2023-07-13T02:02:52;99403.13;;;15.77;100.00
25722;BME280;13578;53.450;15.496;2023-07-13T02:05:52;99414.41;;;15.76;100.00
25722;BME280;13578;53.450;15.496;2023-07-13T02:08:53;99405.72;;;15.79;100.00
25722;BME280;13578;53.450;15.496;2023-07-13T02:11:54;99406.28;;;15.74;100.00
25722;BME280;13578;53.450;15.496;2023-07-13T02:14:55;99413.75;;;15.65;100.00
25722;BME280;13578;53.450;15.496;2023-07-13T02:17:55;99413.09;;;15.63;100.00
25722;BME280;13578;53.450;15.496;2023-07-13T02:20:57;99408.09;;;15.59;100.00
25722;BME280;13578;53.450;15.496;2023-07-13T02:23:57;99403.09;;;15.54;100.00
25722;BME280;13578;53.450;15.496;2023-07-13T02:26:58;99398.28;;;15.48;100.00
25722;BME280;13578;53.450;15.496;2023-07-13T02:29:59;99397.09;;;15.42;100.00
25722;BME280;13578;53.450;15.496;2023-07-13T02:32:59;99397.81;;;15.36;100.00
25722;BME280;13578;53.450;15.496;2023-07-13T02:36:00;99412.88;;;15.33;100.00
25722;BME280;13578;53.450;15.496;2023-07-13T02:39:02;99419.44;;;15.32;100.00
25722;BME280;13578;53.450;15.496;2023-07-13T02:42:04;99409.41;;;15.31;100.00
25722;BME280;13578;53.450;15.496;2023-07-13T02:45:06;99409.75;;;15.28;100.00
25722;BME280;13578;53.450;15.496;2023-07-13T02:48:06;99411.88;;;15.26;100.00
25722;BME280;13578;53.450;15.496;2023-07-13T02:51:07;99401.88;;;15.17;100.00
25722;BME280;13578;53.450;15.496;2023-07-13T02:54:08;99396.88;;;15.12;100.00
25722;BME280;13578;53.450;15.496;2023-07-13T02:57:09;99399.13;;;15.08;100.00
25722;BME280;13578;53.450;15.496;2023-07-13T03:00:10;99391.91;;;14.99;100.00
25722;BME280;13578;53.450;15.496;2023-07-13T03:03:12;99383.47;;;14.92;100.00
25722;BME280;13578;53.450;15.496;2023-07-13T03:06:14;99394.22;;;14.79;100.00
25722;BME280;13578;53.450;15.496;2023-07-13T03:09:15;99382.47;;;14.77;100.00
25722;BME280;13578;53.450;15.496;2023-07-13T03:12:16;99394.22;;;14.79;100.00
25722;BME280;13578;53.450;15.496;2023-07-13T03:15:17;99397.81;;;14.88;100.00
25722;BME280;13578;53.450;15.496;2023-07-13T03:18:17;99400.72;;;14.95;100.00
25722;BME280;13578;53.450;15.496;2023-07-13T03:21:18;99416.41;;;15.11;100.00
25722;BME280;13578;53.450;15.496;2023-07-13T03:24:19;99427.34;;;15.44;100.00
25722;BME280;13578;53.450;15.496;2023-07-13T03:27:20;99458.78;;;15.82;100.00
25722;BME280;13578;53.450;15.496;2023-07-13T03:30:21;99476.44;;;16.21;100.00
25722;BME280;13578;53.450;15.496;2023-07-13T03:33:22;99492.56;;;16.41;100.00
25722;BME280;13578;53.450;15.496;2023-07-13T03:36:25;99507.81;;;16.60;100.00
25722;BME280;13578;53.450;15.496;2023-07-13T03:39:26;99516.06;;;16.68;100.00
25722;BME280;13578;53.450;15.496;2023-07-13T03:42:27;99515.69;;;16.71;100.00
25722;BME280;13578;53.450;15.496;2023-07-13T03:45:27;99517.97;;;16.91;100.00
25722;BME280;13578;53.450;15.496;2023-07-13T03:48:28;99523.78;;;17.04;100.00
25722;BME280;13578;53.450;15.496;2023-07-13T03:51:28;99527.03;;;17.08;100.00
25722;BME280;13578;53.450;15.496;2023-07-13T03:54:29;99528.28;;;17.20;100.00
25722;BME280;13578;53.450;15.496;2023-07-13T03:57:30;99521.53;;;17.38;100.00
25722;BME280;13578;53.450;15.496;2023-07-13T04:00:31;99532.06;;;17.57;100.00
25722;BME280;13578;53.450;15.496;2023-07-13T04:03:32;99532.72;;;17.74;100.00
25722;BME280;13578;53.450;15.496;2023-07-13T04:06:33;99535.34;;;17.76;100.00
25722;BME280;13578;53.450;15.496;2023-07-13T04:09:35;99533.41;;;17.61;100.00
25722;BME280;13578;53.450;15.496;2023-07-13T04:12:35;99542.38;;;17.34;100.00
25722;BME280;13578;53.450;15.496;2023-07-13T04:15:36;99548.56;;;17.21;100.00
25722;BME280;13578;53.450;15.496;2023-07-13T04:18:36;99537.06;;;17.09;100.00
25722;BME280;13578;53.450;15.496;2023-07-13T04:21:37;99548.31;;;17.07;100.00
25722;BME280;13578;53.450;15.496;2023-07-13T04:24:38;99539.28;;;17.13;100.00
25722;BME280;13578;53.450;15.496;2023-07-13T04:27:38;99544.84;;;17.28;100.00
25722;BME280;13578;53.450;15.496;2023-07-13T04:30:39;99546.00;;;17.34;100.00
25722;BME280;13578;53.450;15.496;2023-07-13T04:33:40;99547.53;;;17.37;100.00
25722;BME280;13578;53.450;15.496;2023-07-13T04:36:41;99554.34;;;17.34;100.00
25722;BME280;13578;53.450;15.496;2023-07-13T04:39:41;99551.00;;;17.39;100.00
25722;BME280;13578;53.450;15.496;2023-07-13T04:42:42;99558.19;;;17.63;100.00
25722;BME280;13578;53.450;15.496;2023-07-13T04:45:43;99564.50;;;17.72;100.00
25722;BME280;13578;53.450;15.496;2023-07-13T04:48:43;99558.09;;;17.86;100.00
25722;BME280;13578;53.450;15.496;2023-07-13T04:51:44;99556.47;;;17.92;100.00
25722;BME280;13578;53.450;15.496;2023-07-13T04:54:45;99563.28;;;17.89;100.00
25722;BME280;13578;53.450;15.496;2023-07-13T04:57:46;99574.22;;;18.06;100.00
25722;BME280;13578;53.450;15.496;2023-07-13T05:00:47;99578.50;;;18.08;100.00
25722;BME280;13578;53.450;15.496;2023-07-13T05:03:47;99579.66;;;17.99;100.00
25722;BME280;13578;53.450;15.496;2023-07-13T05:06:48;99571.34;;;17.99;100.00
25722;BME280;13578;53.450;15.496;2023-07-13T05:09:48;99588.25;;;17.89;100.00
25722;BME280;13578;53.450;15.496;2023-07-13T05:12:49;99578.84;;;17.75;100.00
25722;BME280;13578;53.450;15.496;2023-07-13T05:16:01;99575.03;;;17.76;100.00
25722;BME280;13578;53.450;15.496;2023-07-13T05:19:03;99586.25;;;17.83;100.00
25722;BME280;13578;53.450;15.496;2023-07-13T05:22:03;99589.97;;;17.90;100.00
25722;BME280;13578;53.450;15.496;2023-07-13T05:25:05;99598.41;;;17.97;100.00
25722;BME280;13578;53.450;15.496;2023-07-13T05:28:06;99604.06;;;18.04;100.00
25722;BME280;13578;53.450;15.496;2023-07-13T05:31:08;99617.09;;;18.18;100.00
25722;BME280;13578;53.450;15.496;2023-07-13T05:34:09;99623.97;;;18.22;100.00
25722;BME280;13578;53.450;15.496;2023-07-13T05:37:10;99619.00;;;18.33;100.00
25722;BME280;13578;53.450;15.496;2023-07-13T05:40:10;99613.97;;;18.43;100.00
25722;BME280;13578;53.450;15.496;2023-07-13T05:43:11;99622.88;;;18.53;100.00
25722;BME280;13578;53.450;15.496;2023-07-13T05:46:12;99626.59;;;18.61;100.00
25722;BME280;13578;53.450;15.496;2023-07-13T05:49:12;99618.53;;;18.66;100.00
25722;BME280;13578;53.450;15.496;2023-07-13T05:52:13;99619.09;;;18.76;100.00
25722;BME280;13578;53.450;15.496;2023-07-13T05:55:14;99626.00;;;19.02;100.00
25722;BME280;13578;53.450;15.496;2023-07-13T05:58:16;99635.69;;;19.06;100.00
25722;BME280;13578;53.450;15.496;2023-07-13T06:01:17;99632.59;;;19.16;100.00
25722;BME280;13578;53.450;15.496;2023-07-13T06:04:20;99633.72;;;19.22;100.00
25722;BME280;13578;53.450;15.496;2023-07-13T06:07:21;99630.13;;;19.28;100.00
25722;BME280;13578;53.450;15.496;2023-07-13T06:10:21;99626.56;;;19.34;100.00
25722;BME280;13578;53.450;15.496;2023-07-13T06:13:22;99630.72;;;19.45;100.00
25722;BME280;13578;53.450;15.496;2023-07-13T06:16:23;99637.78;;;19.47;100.00
25722;BME280;13578;53.450;15.496;2023-07-13T06:19:23;99649.19;;;19.52;100.00
25722;BME280;13578;53.450;15.496;2023-07-13T06:22:24;99642.16;;;19.57;100.00
25722;BME280;13578;53.450;15.496;2023-07-13T06:25:26;99639.38;;;19.57;100.00
25722;BME280;13578;53.450;15.496;2023-07-13T06:28:28;99639.44;;;19.85;100.00
25722;BME280;13578;53.450;15.496;2023-07-13T06:31:28;99634.41;;;20.02;100.00
25722;BME280;13578;53.450;15.496;2023-07-13T06:34:29;99642.16;;;20.07;100.00
25722;BME280;13578;53.450;15.496;2023-07-13T06:37:29;99638.38;;;20.21;100.00
25722;BME280;13578;53.450;15.496;2023-07-13T06:40:30;99634.31;;;20.24;100.00
25722;BME280;13578;53.450;15.496;2023-07-13T06:43:31;99645.44;;;20.24;100.00
25722;BME280;13578;53.450;15.496;2023-07-13T06:46:32;99638.66;;;20.33;100.00
25722;BME280;13578;53.450;15.496;2023-07-13T06:49:33;99646.19;;;20.39;100.00
25722;BME280;13578;53.450;15.496;2023-07-13T06:52:33;99639.91;;;20.30;100.00
25722;BME280;13578;53.450;15.496;2023-07-13T06:55:34;99641.84;;;20.30;100.00
25722;BME280;13578;53.450;15.496;2023-07-13T06:58:35;99641.66;;;20.38;100.00
25722;BME280;13578;53.450;15.496;2023-07-13T07:01:35;99648.25;;;20.30;100.00
25722;BME280;13578;53.450;15.496;2023-07-13T07:04:36;99645.69;;;20.29;100.00
25722;BME280;13578;53.450;15.496;2023-07-13T07:07:37;99647.91;;;20.40;100.00
25722;BME280;13578;53.450;15.496;2023-07-13T07:10:37;99646.00;;;20.47;100.00
25722;BME280;13578;53.450;15.496;2023-07-13T07:13:38;99646.81;;;20.41;100.00
25722;BME280;13578;53.450;15.496;2023-07-13T07:16:38;99641.47;;;20.40;100.00
25722;BME280;13578;53.450;15.496;2023-07-13T07:19:39;99648.63;;;20.56;100.00
25722;BME280;13578;53.450;15.496;2023-07-13T07:22:40;99643.72;;;20.65;100.00
25722;BME280;13578;53.450;15.496;2023-07-13T07:25:43;99636.50;;;20.77;100.00
25722;BME280;13578;53.450;15.496;2023-07-13T07:28:44;99637.84;;;20.94;100.00
25722;BME280;13578;53.450;15.496;2023-07-13T07:31:44;99645.22;;;21.22;100.00
25722;BME280;13578;53.450;15.496;2023-07-13T07:34:45;99625.22;;;21.12;100.00
25722;BME280;13578;53.450;15.496;2023-07-13T07:37:46;99614.69;;;21.07;100.00
25722;BME280;13578;53.450;15.496;2023-07-13T07:40:47;99621.16;;;21.15;100.00
25722;BME280;13578;53.450;15.496;2023-07-13T07:43:47;99635.75;;;21.30;100.00
25722;BME280;13578;53.450;15.496;2023-07-13T07:46:48;99621.34;;;21.13;100.00
25722;BME280;13578;53.450;15.496;2023-07-13T07:49:49;99625.91;;;21.34;100.00
25722;BME280;13578;53.450;15.496;2023-07-13T07:52:50;99623.75;;;21.30;100.00
25722;BME280;13578;53.450;15.496;2023-07-13T07:55:50;99626.75;;;21.28;100.00
25722;BME280;13578;53.450;15.496;2023-07-13T07:58:51;99631.47;;;21.41;100.00
25722;BME280;13578;53.450;15.496;2023-07-13T08:01:52;99632.75;;;21.38;100.00
25722;BME280;13578;53.450;15.496;2023-07-13T08:04:53;99619.03;;;21.50;100.00
25722;BME280;13578;53.450;15.496;2023-07-13T08:07:53;99622.69;;;21.71;100.00
25722;BME280;13578;53.450;15.496;2023-07-13T08:10:54;99609.81;;;21.77;100.00
25722;BME280;13578;53.450;15.496;2023-07-13T08:13:55;99625.69;;;21.96;100.00
25722;BME280;13578;53.450;15.496;2023-07-13T08:16:55;99615.13;;;22.12;100.00
25722;BME280;13578;53.450;15.496;2023-07-13T08:19:56;99643.94;;;22.12;100.00
25722;BME280;13578;53.450;15.496;2023-07-13T08:22:56;99625.44;;;22.04;100.00
25722;BME280;13578;53.450;15.496;2023-07-13T08:25:57;99627.97;;;22.26;100.00
25722;BME280;13578;53.450;15.496;2023-07-13T08:28:58;99635.53;;;22.19;100.00
25722;BME280;13578;53.450;15.496;2023-07-13T08:31:59;99631.47;;;22.15;100.00
25722;BME280;13578;53.450;15.496;2023-07-13T08:35:00;99637.47;;;22.18;100.00
25722;BME280;13578;53.450;15.496;2023-07-13T08:38:00;99645.16;;;22.36;100.00
25722;BME280;13578;53.450;15.496;2023-07-13T08:41:09;99634.44;;;22.40;100.00
25722;BME280;13578;53.450;15.496;2023-07-13T08:44:40;99630.53;;;22.48;100.00
25722;BME280;13578;53.450;15.496;2023-07-13T08:47:51;99626.59;;;22.62;100.00
25722;BME280;13578;53.450;15.496;2023-07-13T08:54:23;99629.34;;;22.76;100.00
25722;BME280;13578;53.450;15.496;2023-07-13T08:57:33;99630.84;;;22.72;100.00
25722;BME280;13578;53.450;15.496;2023-07-13T09:04:19;99617.44;;;22.42;100.00
25722;BME280;13578;53.450;15.496;2023-07-13T09:08:00;99602.00;;;22.78;98.22
25722;BME280;13578;53.450;15.496;2023-07-13T09:11:14;99606.03;;;22.89;99.22
25722;BME280;13578;53.450;15.496;2023-07-13T09:14:47;99626.06;;;22.86;100.00
25722;BME280;13578;53.450;15.496;2023-07-13T09:17:51;99608.00;;;22.29;100.00
25722;BME280;13578;53.450;15.496;2023-07-13T09:27:39;99617.22;;;22.36;100.00
25722;BME280;13578;53.450;15.496;2023-07-13T09:31:07;99628.84;;;22.40;100.00
25722;BME280;13578;53.450;15.496;2023-07-13T09:34:11;99616.84;;;22.13;100.00
25722;BME280;13578;53.450;15.496;2023-07-13T09:37:12;99632.31;;;22.22;100.00
25722;BME280;13578;53.450;15.496;2023-07-13T09:40:32;99639.72;;;22.68;100.00
25722;BME280;13578;53.450;15.496;2023-07-13T09:43:37;99629.41;;;23.40;100.00
25722;BME280;13578;53.450;15.496;2023-07-13T09:46:39;99618.72;;;23.55;100.00
25722;BME280;13578;53.450;15.496;2023-07-13T09:49:40;99608.13;;;23.32;96.14
25722;BME280;13578;53.450;15.496;2023-07-13T09:52:46;99632.97;;;23.22;100.00
25722;BME280;13578;53.450;15.496;2023-07-13T09:55:48;99636.06;;;23.45;100.00
25722;BME280;13578;53.450;15.496;2023-07-13T09:58:49;99620.72;;;23.23;98.53
25722;BME280;13578;53.450;15.496;2023-07-13T10:01:49;99639.56;;;22.50;100.00
25722;BME280;13578;53.450;15.496;2023-07-13T10:04:59;99650.38;;;22.19;100.00
25722;BME280;13578;53.450;15.496;2023-07-13T10:08:00;99630.66;;;21.87;100.00
25722;BME280;13578;53.450;15.496;2023-07-13T10:11:12;99650.41;;;21.86;100.00
25722;BME280;13578;53.450;15.496;2023-07-13T10:14:18;99643.53;;;21.95;100.00
25722;BME280;13578;53.450;15.496;2023-07-13T10:17:29;99627.84;;;21.94;100.00
25722;BME280;13578;53.450;15.496;2023-07-13T10:20:31;99637.72;;;21.90;100.00
25722;BME280;13578;53.450;15.496;2023-07-13T10:23:32;99646.09;;;21.90;100.00
25722;BME280;13578;53.450;15.496;2023-07-13T10:26:34;99666.31;;;21.92;100.00
25722;BME280;13578;53.450;15.496;2023-07-13T10:29:45;99657.28;;;21.97;100.00
25722;BME280;13578;53.450;15.496;2023-07-13T10:32:47;99661.38;;;21.94;100.00
25722;BME280;13578;53.450;15.496;2023-07-13T10:35:49;99665.88;;;22.09;100.00
25722;BME280;13578;53.450;15.496;2023-07-13T10:38:52;99658.06;;;22.51;100.00
25722;BME280;13578;53.450;15.496;2023-07-13T10:42:01;99655.06;;;22.91;98.96
25722;BME280;13578;53.450;15.496;2023-07-13T10:45:15;99644.75;;;22.92;92.05
25722;BME280;13578;53.450;15.496;2023-07-13T10:48:17;99631.50;;;23.12;90.62
25722;BME280;13578;53.450;15.496;2023-07-13T10:51:19;99612.16;;;22.72;85.43
25722;BME280;13578;53.450;15.496;2023-07-13T10:54:34;99655.25;;;22.58;98.91
25722;BME280;13578;53.450;15.496;2023-07-13T10:57:42;99653.09;;;22.53;98.78
25722;BME280;13578;53.450;15.496;2023-07-13T11:00:46;99656.75;;;22.53;98.92
25722;BME280;13578;53.450;15.496;2023-07-13T11:04:03;99649.84;;;22.63;97.30
25722;BME280;13578;53.450;15.496;2023-07-13T11:07:21;99632.16;;;22.76;93.18
25722;BME280;13578;53.450;15.496;2023-07-13T11:10:48;99623.09;;;23.12;88.15
25722;BME280;13578;53.450;15.496;2023-07-13T11:16:50;99619.56;;;23.81;79.80
25722;BME280;13578;53.450;15.496;2023-07-13T11:19:51;99592.53;;;23.68;74.77
25722;BME280;13578;53.450;15.496;2023-07-13T11:29:39;99623.34;;;23.43;81.78
25722;BME280;13578;53.450;15.496;2023-07-13T11:32:40;99608.09;;;23.64;77.68
25722;BME280;13578;53.450;15.496;2023-07-13T11:39:18;99618.91;;;23.60;78.43
25722;BME280;13578;53.450;15.496;2023-07-13T11:42:20;99617.72;;;23.18;79.50
25722;BME280;13578;53.450;15.496;2023-07-13T11:45:22;99621.88;;;23.02;78.77
25722;BME280;13578;53.450;15.496;2023-07-13T11:48:28;99643.78;;;23.18;86.88
25722;BME280;13578;53.450;15.496;2023-07-13T11:51:32;99629.56;;;23.13;84.62
25722;BME280;13578;53.450;15.496;2023-07-13T11:54:42;99617.94;;;23.48;78.65
25722;BME280;13578;53.450;15.496;2023-07-13T11:57:58;99623.69;;;23.53;79.28
25722;BME280;13578;53.450;15.496;2023-07-13T12:01:02;99628.34;;;23.66;81.13
25722;BME280;13578;53.450;15.496;2023-07-13T12:04:05;99630.16;;;23.79;83.43
25722;BME280;13578;53.450;15.496;2023-07-13T12:07:14;99635.47;;;23.62;82.43
25722;BME280;13578;53.450;15.496;2023-07-13T12:10:17;99636.66;;;23.47;82.27
25722;BME280;13578;53.450;15.496;2023-07-13T12:13:18;99616.88;;;23.42;77.89
25722;BME280;13578;53.450;15.496;2023-07-13T12:16:32;99616.25;;;23.66;77.88
25722;BME280;13578;53.450;15.496;2023-07-13T12:19:33;99612.84;;;23.63;77.63
25722;BME280;13578;53.450;15.496;2023-07-13T12:22:34;99640.59;;;23.90;86.17
25722;BME280;13578;53.450;15.496;2023-07-13T12:25:34;99620.75;;;24.17;82.01
25722;BME280;13578;53.450;15.496;2023-07-13T12:28:36;99614.06;;;24.37;78.53
25722;BME280;13578;53.450;15.496;2023-07-13T12:31:41;99593.88;;;24.47;70.73
25722;BME280;13578;53.450;15.496;2023-07-13T12:34:55;99614.03;;;24.55;76.08
25722;BME280;13578;53.450;15.496;2023-07-13T12:37:59;99605.09;;;24.84;75.24
25722;BME280;13578;53.450;15.496;2023-07-13T12:41:01;99603.31;;;24.71;70.10
25722;BME280;13578;53.450;15.496;2023-07-13T12:44:02;99590.50;;;24.75;68.51
25722;BME280;13578;53.450;15.496;2023-07-13T12:47:06;99574.72;;;24.62;65.21
25722;BME280;13578;53.450;15.496;2023-07-13T12:50:20;99576.47;;;24.75;67.94
25722;BME280;13578;53.450;15.496;2023-07-13T12:53:27;99594.38;;;24.93;69.35
25722;BME280;13578;53.450;15.496;2023-07-13T12:56:28;99601.50;;;25.07;72.08
25722;BME280;13578;53.450;15.496;2023-07-13T12:59:32;99595.81;;;25.14;70.08
25722;BME280;13578;53.450;15.496;2023-07-13T13:02:34;99594.19;;;25.06;70.16
25722;BME280;13578;53.450;15.496;2023-07-13T13:05:35;99572.97;;;24.80;62.93
25722;BME280;13578;53.450;15.496;2023-07-13T13:08:38;99582.81;;;24.15;69.67
25722;BME280;13578;53.450;15.496;2023-07-13T13:11:41;99577.44;;;23.94;67.69
25722;BME280;13578;53.450;15.496;2023-07-13T13:14:42;99594.66;;;24.35;75.40
25722;BME280;13578;53.450;15.496;2023-07-13T13:17:43;99567.81;;;24.27;65.60
25722;BME280;13578;53.450;15.496;2023-07-13T13:20:44;99569.69;;;24.15;64.32
25722;BME280;13578;53.450;15.496;2023-07-13T13:23:46;99568.13;;;24.19;63.67
25722;BME280;13578;53.450;15.496;2023-07-13T13:26:48;99571.56;;;24.21;65.96
25722;BME280;13578;53.450;15.496;2023-07-13T13:29:51;99568.00;;;24.63;66.77
25722;BME280;13578;53.450;15.496;2023-07-13T13:32:54;99587.00;;;25.10;69.28
25722;BME280;13578;53.450;15.496;2023-07-13T13:35:55;99566.63;;;25.27;62.01
25722;BME280;13578;53.450;15.496;2023-07-13T13:38:56;99564.66;;;25.15;60.84
25722;BME280;13578;53.450;15.496;2023-07-13T13:41:56;99562.75;;;24.85;61.66
25722;BME280;13578;53.450;15.496;2023-07-13T13:44:57;99570.56;;;24.46;63.96
25722;BME280;13578;53.450;15.496;2023-07-13T13:47:58;99575.59;;;24.44;63.71
25722;BME280;13578;53.450;15.496;2023-07-13T13:51:00;99580.13;;;24.45;65.89
25722;BME280;13578;53.450;15.496;2023-07-13T13:54:01;99585.06;;;24.80;68.65
25722;BME280;13578;53.450;15.496;2023-07-13T13:57:03;99563.22;;;24.33;61.88
25722;BME280;13578;53.450;15.496;2023-07-13T14:00:05;99572.47;;;23.97;65.47
25722;BME280;13578;53.450;15.496;2023-07-13T14:03:13;99585.16;;;23.99;68.61
25722;BME280;13578;53.450;15.496;2023-07-13T14:06:15;99580.88;;;24.34;68.91
25722;BME280;13578;53.450;15.496;2023-07-13T14:09:18;99582.09;;;24.38;66.67
25722;BME280;13578;53.450;15.496;2023-07-13T14:12:20;99566.41;;;24.18;66.18
25722;BME280;13578;53.450;15.496;2023-07-13T14:15:26;99576.34;;;23.95;66.82
25722;BME280;13578;53.450;15.496;2023-07-13T14:18:26;99588.53;;;23.83;68.86
25722;BME280;13578;53.450;15.496;2023-07-13T14:21:28;99590.13;;;23.72;69.71
25722;BME280;13578;53.450;15.496;2023-07-13T14:24:29;99600.94;;;23.68;72.08
25722;BME280;13578;53.450;15.496;2023-07-13T14:27:30;99600.13;;;23.61;73.46
25722;BME280;13578;53.450;15.496;2023-07-13T14:30:30;99613.81;;;23.76;77.25
25722;BME280;13578;53.450;15.496;2023-07-13T14:33:31;99622.25;;;23.94;82.02
25722;BME280;13578;53.450;15.496;2023-07-13T14:36:35;99574.94;;;23.86;68.92
25722;BME280;13578;53.450;15.496;2023-07-13T14:39:37;99579.03;;;23.84;69.78
25722;BME280;13578;53.450;15.496;2023-07-13T14:42:38;99593.41;;;23.69;69.79
25722;BME280;13578;53.450;15.496;2023-07-13T14:45:49;99585.75;;;23.83;70.15
25722;BME280;13578;53.450;15.496;2023-07-13T14:48:51;99604.88;;;23.86;73.75
25722;BME280;13578;53.450;15.496;2023-07-13T14:51:51;99585.94;;;23.81;68.62
25722;BME280;13578;53.450;15.496;2023-07-13T14:54:52;99577.84;;;23.73;67.34
25722;BME280;13578;53.450;15.496;2023-07-13T14:57:54;99583.91;;;23.70;69.16
25722;BME280;13578;53.450;15.496;2023-07-13T15:00:54;99578.59;;;23.61;67.25
25722;BME280;13578;53.450;15.496;2023-07-13T15:03:58;99600.84;;;23.56;74.01
25722;BME280;13578;53.450;15.496;2023-07-13T15:07:03;99596.22;;;23.69;73.64
25722;BME280;13578;53.450;15.496;2023-07-13T15:10:22;99601.41;;;24.09;75.72
25722;BME280;13578;53.450;15.496;2023-07-13T15:13:24;99575.72;;;24.31;66.64
25722;BME280;13578;53.450;15.496;2023-07-13T15:16:25;99569.50;;;24.10;66.54
25722;BME280;13578;53.450;15.496;2023-07-13T15:19:26;99581.13;;;23.88;68.75
25722;BME280;13578;53.450;15.496;2023-07-13T15:22:27;99580.47;;;23.68;65.96
25722;BME280;13578;53.450;15.496;2023-07-13T15:25:31;99582.94;;;23.57;68.11
25722;BME280;13578;53.450;15.496;2023-07-13T15:28:33;99573.22;;;23.85;65.11
25722;BME280;13578;53.450;15.496;2023-07-13T15:31:34;99594.44;;;24.18;73.81
25722;BME280;13578;53.450;15.496;2023-07-13T15:34:37;99580.72;;;24.47;65.50
25722;BME280;13578;53.450;15.496;2023-07-13T15:37:37;99589.69;;;24.37;70.90
25722;BME280;13578;53.450;15.496;2023-07-13T15:40:38;99560.63;;;24.32;64.52
25722;BME280;13578;53.450;15.496;2023-07-13T15:43:38;99578.38;;;24.25;68.65
25722;BME280;13578;53.450;15.496;2023-07-13T15:46:39;99574.19;;;23.98;68.53
25722;BME280;13578;53.450;15.496;2023-07-13T15:49:40;99592.25;;;23.76;72.19
25722;BME280;13578;53.450;15.496;2023-07-13T15:52:42;99579.84;;;23.66;72.24
25722;BME280;13578;53.450;15.496;2023-07-13T15:55:44;99578.22;;;23.58;70.51
25722;BME280;13578;53.450;15.496;2023-07-13T15:58:45;99572.59;;;23.58;68.89
25722;BME280;13578;53.450;15.496;2023-07-13T16:01:46;99594.22;;;23.51;76.08
25722;BME280;13578;53.450;15.496;2023-07-13T16:04:49;99593.81;;;23.47;73.92
25722;BME280;13578;53.450;15.496;2023-07-13T16:07:51;99596.13;;;23.50;75.82
25722;BME280;13578;53.450;15.496;2023-07-13T16:10:53;99612.03;;;23.82;78.28
25722;BME280;13578;53.450;15.496;2023-07-13T16:13:54;99612.19;;;24.12;79.91